sensor_id;sensor_type;location;lat;lon;timestamp;temperature;humidity
5556;DHT22;2801;50.972;7.856;2022-09-24T00:01:34;7.80;99.90
5556;DHT22;2801;50.972;7.856;2022-09-24T00:04:04;7.70;99.90
5556;DHT22;2801;50.972;7.856;2022-09-24T00:06:41;7.80;99.90
5556;DHT22;2801;50.972;7.856;2022-09-24T00:09:15;7.80;99.90
5556;DHT22;2801;50.972;7.856;2022-09-24T00:11:48;7.70;99.90
5556;DHT22;2801;50.972;7.856;2022-09-24T00:14:18;7.70;99.90
5556;DHT22;2801;50.972;7.856;2022-09-24T00:16:45;7.70;99.90
5556;DHT22;2801;50.972;7.856;2022-09-24T00:19:13;7.70;99.90
5556;DHT22;2801;50.972;7.856;2022-09-24T00:21:41;7.60;99.90
5556;DHT22;2801;50.972;7.856;2022-09-24T00:24:12;7.60;99.90
5556;DHT22;2801;50.972;7.856;2022-09-24T00:26:59;7.60;99.90
5556;DHT22;2801;50.972;7.856;2022-09-24T00:29:28;7.60;99.90
5556;DHT22;2801;50.972;7.856;2022-09-24T00:31:58;7.60;99.90
5556;DHT22;2801;50.972;7.856;2022-09-24T00:34:25;7.60;99.90
5556;DHT22;2801;50.972;7.856;2022-09-24T00:36:52;7.50;99.90
5556;DHT22;2801;50.972;7.856;2022-09-24T00:39:19;7.50;99.90
5556;DHT22;2801;50.972;7.856;2022-09-24T00:41:46;7.40;99.90
5556;DHT22;2801;50.972;7.856;2022-09-24T00:49:48;7.40;99.90
5556;DHT22;2801;50.972;7.856;2022-09-24T00:52:17;7.40;99.90
5556;DHT22;2801;50.972;7.856;2022-09-24T00:54:45;7.30;99.90
5556;DHT22;2801;50.972;7.856;2022-09-24T00:57:13;7.30;99.90
5556;DHT22;2801;50.972;7.856;2022-09-24T00:59:40;7.30;99.90
5556;DHT22;2801;50.972;7.856;2022-09-24T01:02:08;7.30;99.90
5556;DHT22;2801;50.972;7.856;2022-09-24T01:04:35;7.30;99.90
5556;DHT22;2801;50.972;7.856;2022-09-24T01:07:02;7.30;99.90
5556;DHT22;2801;50.972;7.856;2022-09-24T01:09:29;7.30;99.90
5556;DHT22;2801;50.972;7.856;2022-09-24T01:14:53;7.40;99.90
5556;DHT22;2801;50.972;7.856;2022-09-24T01:17:50;7.40;99.90
5556;DHT22;2801;50.972;7.856;2022-09-24T01:24:13;7.30;99.90
5556;DHT22;2801;50.972;7.856;2022-09-24T01:27:21;7.20;99.90
5556;DHT22;2801;50.972;7.856;2022-09-24T01:30:03;7.20;99.90
5556;DHT22;2801;50.972;7.856;2022-09-24T01:33:15;7.20;99.90
5556;DHT22;2801;50.972;7.856;2022-09-24T01:35:50;7.20;99.90
5556;DHT22;2801;50.972;7.856;2022-09-24T01:38:27;7.30;99.90
5556;DHT22;2801;50.972;7.856;2022-09-24T01:40:58;7.30;99.90
5556;DHT22;2801;50.972;7.856;2022-09-24T01:43:29;7.20;99.90
5556;DHT22;2801;50.972;7.856;2022-09-24T01:45:59;7.20;99.90
5556;DHT22;2801;50.972;7.856;2022-09-24T01:48:28;7.10;99.90
5556;DHT22;2801;50.972;7.856;2022-09-24T01:51:04;7.10;99.90
5556;DHT22;2801;50.972;7.856;2022-09-24T01:53:59;7.00;99.90
5556;DHT22;2801;50.972;7.856;2022-09-24T01:56:33;7.00;99.90
5556;DHT22;2801;50.972;7.856;2022-09-24T01:59:11;7.00;99.90
5556;DHT22;2801;50.972;7.856;2022-09-24T02:02:04;7.00;99.90
5556;DHT22;2801;50.972;7.856;2022-09-24T02:04:43;7.00;99.90
5556;DHT22;2801;50.972;7.856;2022-09-24T02:07:29;7.00;99.90
5556;DHT22;2801;50.972;7.856;2022-09-24T02:10:00;6.90;99.90
5556;DHT22;2801;50.972;7.856;2022-09-24T02:12:33;6.90;99.90
5556;DHT22;2801;50.972;7.856;2022-09-24T02:15:15;6.90;99.90
5556;DHT22;2801;50.972;7.856;2022-09-24T02:17:49;6.90;99.90
5556;DHT22;2801;50.972;7.856;2022-09-24T02:20:21;6.80;99.90
5556;DHT22;2801;50.972;7.856;2022-09-24T02:22:54;6.80;99.90
5556;DHT22;2801;50.972;7.856;2022-09-24T02:25:29;6.90;99.90
5556;DHT22;2801;50.972;7.856;2022-09-24T02:28:00;6.80;99.90
5556;DHT22;2801;50.972;7.856;2022-09-24T02:30:36;6.90;99.90
5556;DHT22;2801;50.972;7.856;2022-09-24T02:33:09;6.90;99.90
5556;DHT22;2801;50.972;7.856;2022-09-24T02:35:58;6.90;99.90
5556;DHT22;2801;50.972;7.856;2022-09-24T02:38:25;6.90;99.90
5556;DHT22;2801;50.972;7.856;2022-09-24T02:40:52;6.90;99.90
5556;DHT22;2801;50.972;7.856;2022-09-24T02:43:19;6.90;99.90
5556;DHT22;2801;50.972;7.856;2022-09-24T02:45:46;6.90;99.90
5556;DHT22;2801;50.972;7.856;2022-09-24T02:48:13;6.90;99.90
5556;DHT22;2801;50.972;7.856;2022-09-24T02:50:40;6.90;99.90
5556;DHT22;2801;50.972;7.856;2022-09-24T02:53:07;6.80;99.90
5556;DHT22;2801;50.972;7.856;2022-09-24T02:55:35;6.80;99.90
5556;DHT22;2801;50.972;7.856;2022-09-24T02:58:02;6.80;99.90
5556;DHT22;2801;50.972;7.856;2022-09-24T03:00:28;6.80;99.90
5556;DHT22;2801;50.972;7.856;2022-09-24T03:02:55;6.90;99.90
5556;DHT22;2801;50.972;7.856;2022-09-24T03:05:22;6.90;99.90
5556;DHT22;2801;50.972;7.856;2022-09-24T03:07:49;7.00;99.90
5556;DHT22;2801;50.972;7.856;2022-09-24T03:10:16;7.00;99.90
5556;DHT22;2801;50.972;7.856;2022-09-24T03:12:42;7.00;99.90
5556;DHT22;2801;50.972;7.856;2022-09-24T03:15:09;7.00;99.90
5556;DHT22;2801;50.972;7.856;2022-09-24T03:17:36;7.00;99.90
5556;DHT22;2801;50.972;7.856;2022-09-24T03:20:03;7.00;99.90
5556;DHT22;2801;50.972;7.856;2022-09-24T03:22:31;7.00;99.90
5556;DHT22;2801;50.972;7.856;2022-09-24T03:24:57;7.00;99.90
5556;DHT22;2801;50.972;7.856;2022-09-24T03:27:24;7.00;99.90
5556;DHT22;2801;50.972;7.856;2022-09-24T03:29:55;7.00;99.90
5556;DHT22;2801;50.972;7.856;2022-09-24T03:32:41;6.90;99.90
5556;DHT22;2801;50.972;7.856;2022-09-24T03:35:08;6.90;99.90
5556;DHT22;2801;50.972;7.856;2022-09-24T03:37:36;6.90;99.90
5556;DHT22;2801;50.972;7.856;2022-09-24T03:40:03;6.80;99.90
5556;DHT22;2801;50.972;7.856;2022-09-24T03:42:33;6.80;99.90
5556;DHT22;2801;50.972;7.856;2022-09-24T03:45:00;6.70;99.90
5556;DHT22;2801;50.972;7.856;2022-09-24T03:47:27;6.70;99.90
5556;DHT22;2801;50.972;7.856;2022-09-24T03:49:56;6.60;99.90
5556;DHT22;2801;50.972;7.856;2022-09-24T03:52:24;6.60;99.90
5556;DHT22;2801;50.972;7.856;2022-09-24T03:54:51;6.60;99.90
5556;DHT22;2801;50.972;7.856;2022-09-24T03:57:18;6.60;99.90
5556;DHT22;2801;50.972;7.856;2022-09-24T03:59:45;6.50;99.90
5556;DHT22;2801;50.972;7.856;2022-09-24T04:02:12;6.50;99.90
5556;DHT22;2801;50.972;7.856;2022-09-24T04:04:39;6.50;99.90
5556;DHT22;2801;50.972;7.856;2022-09-24T04:07:06;6.40;99.90
5556;DHT22;2801;50.972;7.856;2022-09-24T04:09:33;6.40;99.90
5556;DHT22;2801;50.972;7.856;2022-09-24T04:12:00;6.40;99.90
5556;DHT22;2801;50.972;7.856;2022-09-24T04:14:27;6.30;99.90
5556;DHT22;2801;50.972;7.856;2022-09-24T04:16:53;6.30;99.90
5556;DHT22;2801;50.972;7.856;2022-09-24T04:19:20;6.30;99.90
5556;DHT22;2801;50.972;7.856;2022-09-24T04:21:47;6.20;99.90
5556;DHT22;2801;50.972;7.856;2022-09-24T04:24:14;6.20;99.90
5556;DHT22;2801;50.972;7.856;2022-09-24T04:26:41;6.20;99.90
5556;DHT22;2801;50.972;7.856;2022-09-24T04:29:08;6.20;99.90
5556;DHT22;2801;50.972;7.856;2022-09-24T04:31:34;6.20;99.90
5556;DHT22;2801;50.972;7.856;2022-09-24T04:34:01;6.30;99.90
5556;DHT22;2801;50.972;7.856;2022-09-24T04:36:28;6.30;99.90
5556;DHT22;2801;50.972;7.856;2022-09-24T04:38:55;6.40;99.90
5556;DHT22;2801;50.972;7.856;2022-09-24T04:41:22;6.50;99.90
5556;DHT22;2801;50.972;7.856;2022-09-24T04:43:49;6.60;99.90
5556;DHT22;2801;50.972;7.856;2022-09-24T04:46:16;6.70;99.90
5556;DHT22;2801;50.972;7.856;2022-09-24T04:48:44;6.70;99.90
5556;DHT22;2801;50.972;7.856;2022-09-24T04:51:11;6.80;99.90
5556;DHT22;2801;50.972;7.856;2022-09-24T04:53:38;6.90;99.90
5556;DHT22;2801;50.972;7.856;2022-09-24T04:56:05;6.90;99.90
5556;DHT22;2801;50.972;7.856;2022-09-24T04:58:38;7.00;99.90
5556;DHT22;2801;50.972;7.856;2022-09-24T05:01:05;7.00;99.90
5556;DHT22;2801;50.972;7.856;2022-09-24T05:03:32;7.10;99.90
5556;DHT22;2801;50.972;7.856;2022-09-24T05:05:59;7.10;99.90
5556;DHT22;2801;50.972;7.856;2022-09-24T05:08:27;7.20;99.90
5556;DHT22;2801;50.972;7.856;2022-09-24T05:10:54;7.30;99.90
5556;DHT22;2801;50.972;7.856;2022-09-24T05:13:21;7.30;99.90
5556;DHT22;2801;50.972;7.856;2022-09-24T05:15:48;7.30;99.90
5556;DHT22;2801;50.972;7.856;2022-09-24T05:18:15;7.30;99.90
5556;DHT22;2801;50.972;7.856;2022-09-24T05:20:41;7.30;99.90
5556;DHT22;2801;50.972;7.856;2022-09-24T05:23:08;7.20;99.90
5556;DHT22;2801;50.972;7.856;2022-09-24T05:25:35;7.20;99.90
5556;DHT22;2801;50.972;7.856;2022-09-24T05:28:24;7.20;99.90
5556;DHT22;2801;50.972;7.856;2022-09-24T05:30:56;7.20;99.90
5556;DHT22;2801;50.972;7.856;2022-09-24T05:33:24;7.20;99.90
5556;DHT22;2801;50.972;7.856;2022-09-24T05:35:55;7.30;99.90
5556;DHT22;2801;50.972;7.856;2022-09-24T05:38:23;7.30;99.90
5556;DHT22;2801;50.972;7.856;2022-09-24T05:40:50;7.40;99.90
5556;DHT22;2801;50.972;7.856;2022-09-24T05:43:17;7.40;99.90
5556;DHT22;2801;50.972;7.856;2022-09-24T05:45:47;7.50;99.90
5556;DHT22;2801;50.972;7.856;2022-09-24T05:48:18;7.50;99.90
5556;DHT22;2801;50.972;7.856;2022-09-24T05:50:44;7.60;99.90
5556;DHT22;2801;50.972;7.856;2022-09-24T05:53:11;7.70;99.90
5556;DHT22;2801;50.972;7.856;2022-09-24T05:55:38;7.80;99.90
5556;DHT22;2801;50.972;7.856;2022-09-24T05:58:06;7.90;99.90
5556;DHT22;2801;50.972;7.856;2022-09-24T06:00:36;8.10;99.90
5556;DHT22;2801;50.972;7.856;2022-09-24T06:03:18;8.20;99.90
5556;DHT22;2801;50.972;7.856;2022-09-24T06:05:49;8.40;99.90
5556;DHT22;2801;50.972;7.856;2022-09-24T06:08:19;8.70;99.90
5556;DHT22;2801;50.972;7.856;2022-09-24T06:10:46;9.00;99.90
5556;DHT22;2801;50.972;7.856;2022-09-24T06:13:17;9.60;99.90
5556;DHT22;2801;50.972;7.856;2022-09-24T06:15:45;10.10;99.90
5556;DHT22;2801;50.972;7.856;2022-09-24T06:18:12;10.60;99.90
5556;DHT22;2801;50.972;7.856;2022-09-24T06:20:39;10.90;99.90
5556;DHT22;2801;50.972;7.856;2022-09-24T06:23:06;11.20;99.90
5556;DHT22;2801;50.972;7.856;2022-09-24T06:25:33;11.70;99.90
5556;DHT22;2801;50.972;7.856;2022-09-24T06:28:02;12.10;99.90
5556;DHT22;2801;50.972;7.856;2022-09-24T06:30:37;12.30;99.90
5556;DHT22;2801;50.972;7.856;2022-09-24T06:33:06;12.40;99.90
5556;DHT22;2801;50.972;7.856;2022-09-24T06:35:36;12.30;99.90
5556;DHT22;2801;50.972;7.856;2022-09-24T06:38:04;12.20;99.90
5556;DHT22;2801;50.972;7.856;2022-09-24T06:40:32;12.10;99.90
5556;DHT22;2801;50.972;7.856;2022-09-24T06:43:04;12.10;99.90
5556;DHT22;2801;50.972;7.856;2022-09-24T06:45:32;12.00;99.90
5556;DHT22;2801;50.972;7.856;2022-09-24T06:48:01;12.00;99.90
5556;DHT22;2801;50.972;7.856;2022-09-24T06:50:32;11.90;99.90
5556;DHT22;2801;50.972;7.856;2022-09-24T06:53:03;11.80;99.90
5556;DHT22;2801;50.972;7.856;2022-09-24T06:55:35;11.80;99.90
5556;DHT22;2801;50.972;7.856;2022-09-24T06:58:14;11.80;99.90
5556;DHT22;2801;50.972;7.856;2022-09-24T07:01:11;11.70;99.90
5556;DHT22;2801;50.972;7.856;2022-09-24T07:03:38;11.70;99.90
5556;DHT22;2801;50.972;7.856;2022-09-24T07:06:06;11.70;99.90
5556;DHT22;2801;50.972;7.856;2022-09-24T07:08:33;11.80;99.90
5556;DHT22;2801;50.972;7.856;2022-09-24T07:11:00;11.80;99.90
5556;DHT22;2801;50.972;7.856;2022-09-24T07:13:27;11.70;99.90
5556;DHT22;2801;50.972;7.856;2022-09-24T07:15:54;11.80;99.90
5556;DHT22;2801;50.972;7.856;2022-09-24T07:18:21;11.70;99.90
5556;DHT22;2801;50.972;7.856;2022-09-24T07:20:53;11.80;99.90
5556;DHT22;2801;50.972;7.856;2022-09-24T07:23:21;11.80;99.90
5556;DHT22;2801;50.972;7.856;2022-09-24T07:25:49;11.90;99.90
5556;DHT22;2801;50.972;7.856;2022-09-24T07:28:17;12.00;99.90
5556;DHT22;2801;50.972;7.856;2022-09-24T07:30:46;12.00;99.90
5556;DHT22;2801;50.972;7.856;2022-09-24T07:33:21;12.10;99.90
5556;DHT22;2801;50.972;7.856;2022-09-24T07:35:48;12.10;99.90
5556;DHT22;2801;50.972;7.856;2022-09-24T07:38:16;12.20;99.90
5556;DHT22;2801;50.972;7.856;2022-09-24T07:40:43;12.20;99.90
5556;DHT22;2801;50.972;7.856;2022-09-24T07:43:10;12.20;99.90
5556;DHT22;2801;50.972;7.856;2022-09-24T07:45:40;12.20;99.90
5556;DHT22;2801;50.972;7.856;2022-09-24T07:48:09;12.20;99.90
5556;DHT22;2801;50.972;7.856;2022-09-24T07:50:40;12.30;99.90
5556;DHT22;2801;50.972;7.856;2022-09-24T07:53:10;12.30;99.90
5556;DHT22;2801;50.972;7.856;2022-09-24T07:55:38;12.30;99.90
5556;DHT22;2801;50.972;7.856;2022-09-24T07:58:13;12.30;99.90
5556;DHT22;2801;50.972;7.856;2022-09-24T08:00:40;12.30;99.90
5556;DHT22;2801;50.972;7.856;2022-09-24T08:03:07;12.30;99.90
5556;DHT22;2801;50.972;7.856;2022-09-24T08:05:34;12.40;99.90
5556;DHT22;2801;50.972;7.856;2022-09-24T08:08:01;12.40;99.90
5556;DHT22;2801;50.972;7.856;2022-09-24T08:10:28;12.40;99.90
5556;DHT22;2801;50.972;7.856;2022-09-24T08:12:55;12.50;99.90
5556;DHT22;2801;50.972;7.856;2022-09-24T08:15:27;12.60;99.90
5556;DHT22;2801;50.972;7.856;2022-09-24T08:17:53;12.80;99.90
5556;DHT22;2801;50.972;7.856;2022-09-24T08:20:26;12.90;99.90
5556;DHT22;2801;50.972;7.856;2022-09-24T08:22:53;12.90;99.90
5556;DHT22;2801;50.972;7.856;2022-09-24T08:25:20;13.20;99.90
5556;DHT22;2801;50.972;7.856;2022-09-24T08:27:47;13.30;99.90
5556;DHT22;2801;50.972;7.856;2022-09-24T08:30:14;13.60;99.90
5556;DHT22;2801;50.972;7.856;2022-09-24T08:32:45;13.80;99.90
5556;DHT22;2801;50.972;7.856;2022-09-24T08:35:13;14.00;99.90
5556;DHT22;2801;50.972;7.856;2022-09-24T08:37:44;14.20;99.90
5556;DHT22;2801;50.972;7.856;2022-09-24T08:40:20;14.30;99.90
5556;DHT22;2801;50.972;7.856;2022-09-24T08:43:18;14.60;99.90
5556;DHT22;2801;50.972;7.856;2022-09-24T08:45:56;14.60;99.90
5556;DHT22;2801;50.972;7.856;2022-09-24T08:48:50;14.70;99.90
5556;DHT22;2801;50.972;7.856;2022-09-24T08:51:21;14.70;99.90
5556;DHT22;2801;50.972;7.856;2022-09-24T08:54:05;14.70;99.90
5556;DHT22;2801;50.972;7.856;2022-09-24T08:56:37;14.70;99.90
5556;DHT22;2801;50.972;7.856;2022-09-24T08:59:30;14.80;99.90
5556;DHT22;2801;50.972;7.856;2022-09-24T09:10:59;15.20;99.90
5556;DHT22;2801;50.972;7.856;2022-09-24T09:13:57;15.20;99.90
5556;DHT22;2801;50.972;7.856;2022-09-24T09:16:54;15.20;99.90
5556;DHT22;2801;50.972;7.856;2022-09-24T09:19:33;15.30;99.90
5556;DHT22;2801;50.972;7.856;2022-09-24T09:22:04;15.40;99.90
5556;DHT22;2801;50.972;7.856;2022-09-24T09:24:44;15.70;99.90
5556;DHT22;2801;50.972;7.856;2022-09-24T09:27:17;16.30;99.90
5556;DHT22;2801;50.972;7.856;2022-09-24T09:29:48;17.00;99.90
5556;DHT22;2801;50.972;7.856;2022-09-24T09:35:15;18.20;99.90
5556;DHT22;2801;50.972;7.856;2022-09-24T09:38:20;18.80;99.90
5556;DHT22;2801;50.972;7.856;2022-09-24T09:41:11;19.00;99.90
5556;DHT22;2801;50.972;7.856;2022-09-24T09:43:44;19.00;99.90
5556;DHT22;2801;50.972;7.856;2022-09-24T09:46:22;18.90;99.90
5556;DHT22;2801;50.972;7.856;2022-09-24T09:49:05;18.80;99.90
5556;DHT22;2801;50.972;7.856;2022-09-24T09:51:37;18.70;99.90
5556;DHT22;2801;50.972;7.856;2022-09-24T09:54:07;18.60;99.90
5556;DHT22;2801;50.972;7.856;2022-09-24T09:56:42;18.50;99.90
5556;DHT22;2801;50.972;7.856;2022-09-24T10:01:40;18.70;99.90
5556;DHT22;2801;50.972;7.856;2022-09-24T10:09:37;19.00;99.90
5556;DHT22;2801;50.972;7.856;2022-09-24T10:12:19;19.20;99.90
5556;DHT22;2801;50.972;7.856;2022-09-24T10:15:02;19.50;99.90
5556;DHT22;2801;50.972;7.856;2022-09-24T10:17:41;19.70;99.90
5556;DHT22;2801;50.972;7.856;2022-09-24T10:20:23;19.80;99.90
5556;DHT22;2801;50.972;7.856;2022-09-24T10:22:57;19.90;99.90
5556;DHT22;2801;50.972;7.856;2022-09-24T10:25:29;19.80;99.90
5556;DHT22;2801;50.972;7.856;2022-09-24T10:28:18;19.80;99.90
5556;DHT22;2801;50.972;7.856;2022-09-24T10:31:24;19.80;99.90
5556;DHT22;2801;50.972;7.856;2022-09-24T10:33:56;19.80;99.90
5556;DHT22;2801;50.972;7.856;2022-09-24T10:36:29;19.80;99.90
5556;DHT22;2801;50.972;7.856;2022-09-24T10:41:46;19.60;99.90
5556;DHT22;2801;50.972;7.856;2022-09-24T10:44:18;19.50;99.90
5556;DHT22;2801;50.972;7.856;2022-09-24T10:52:59;20.00;99.90
5556;DHT22;2801;50.972;7.856;2022-09-24T11:01:17;19.90;99.90
5556;DHT22;2801;50.972;7.856;2022-09-24T11:07:22;19.30;99.90
5556;DHT22;2801;50.972;7.856;2022-09-24T11:10:09;18.90;99.90
5556;DHT22;2801;50.972;7.856;2022-09-24T11:18:53;18.50;99.90
5556;DHT22;2801;50.972;7.856;2022-09-24T11:30:44;18.40;99.90
5556;DHT22;2801;50.972;7.856;2022-09-24T11:37:18;18.20;99.90
5556;DHT22;2801;50.972;7.856;2022-09-24T11:43:06;18.00;99.90
5556;DHT22;2801;50.972;7.856;2022-09-24T11:51:51;18.00;99.90
5556;DHT22;2801;50.972;7.856;2022-09-24T11:54:37;18.10;99.90
5556;DHT22;2801;50.972;7.856;2022-09-24T12:00:05;18.10;99.90
5556;DHT22;2801;50.972;7.856;2022-09-24T12:06:01;18.30;99.90
5556;DHT22;2801;50.972;7.856;2022-09-24T12:08:54;18.30;99.90
5556;DHT22;2801;50.972;7.856;2022-09-24T12:11:35;18.30;99.90
5556;DHT22;2801;50.972;7.856;2022-09-24T12:14:24;18.30;99.90
5556;DHT22;2801;50.972;7.856;2022-09-24T12:17:05;18.30;99.90
5556;DHT22;2801;50.972;7.856;2022-09-24T12:20:08;18.20;99.90
5556;DHT22;2801;50.972;7.856;2022-09-24T12:22:47;18.20;99.90
5556;DHT22;2801;50.972;7.856;2022-09-24T12:25:17;18.10;99.90
5556;DHT22;2801;50.972;7.856;2022-09-24T12:27:44;18.00;99.90
5556;DHT22;2801;50.972;7.856;2022-09-24T12:30:30;18.00;99.90
5556;DHT22;2801;50.972;7.856;2022-09-24T12:33:41;18.00;99.90
5556;DHT22;2801;50.972;7.856;2022-09-24T12:38:49;17.90;99.90
5556;DHT22;2801;50.972;7.856;2022-09-24T12:46:54;17.90;99.90
5556;DHT22;2801;50.972;7.856;2022-09-24T12:51:56;17.70;99.90
5556;DHT22;2801;50.972;7.856;2022-09-24T12:54:44;17.60;99.90
5556;DHT22;2801;50.972;7.856;2022-09-24T12:57:18;17.50;99.90
5556;DHT22;2801;50.972;7.856;2022-09-24T12:59:56;17.40;99.90
5556;DHT22;2801;50.972;7.856;2022-09-24T13:02:41;17.30;99.90
5556;DHT22;2801;50.972;7.856;2022-09-24T13:11:03;16.90;99.90
5556;DHT22;2801;50.972;7.856;2022-09-24T13:14:18;16.90;99.90
5556;DHT22;2801;50.972;7.856;2022-09-24T13:16:54;16.90;99.90
5556;DHT22;2801;50.972;7.856;2022-09-24T13:22:02;16.60;99.90
5556;DHT22;2801;50.972;7.856;2022-09-24T13:24:51;16.50;99.90
5556;DHT22;2801;50.972;7.856;2022-09-24T13:30:03;16.50;99.90
5556;DHT22;2801;50.972;7.856;2022-09-24T13:33:03;16.50;99.90
5556;DHT22;2801;50.972;7.856;2022-09-24T13:35:44;16.60;99.90
5556;DHT22;2801;50.972;7.856;2022-09-24T13:38:27;16.60;99.90
5556;DHT22;2801;50.972;7.856;2022-09-24T13:44:01;16.30;99.90
5556;DHT22;2801;50.972;7.856;2022-09-24T13:46:40;16.00;99.90
5556;DHT22;2801;50.972;7.856;2022-09-24T13:49:15;15.60;99.90
5556;DHT22;2801;50.972;7.856;2022-09-24T13:51:55;15.30;99.90
5556;DHT22;2801;50.972;7.856;2022-09-24T13:54:34;15.10;99.90
5556;DHT22;2801;50.972;7.856;2022-09-24T13:57:18;14.90;99.90
5556;DHT22;2801;50.972;7.856;2022-09-24T13:59:48;14.80;99.90
5556;DHT22;2801;50.972;7.856;2022-09-24T14:02:26;14.80;99.90
5556;DHT22;2801;50.972;7.856;2022-09-24T14:04:58;14.70;99.90
5556;DHT22;2801;50.972;7.856;2022-09-24T14:07:27;14.70;99.90
5556;DHT22;2801;50.972;7.856;2022-09-24T14:10:12;14.70;99.90
5556;DHT22;2801;50.972;7.856;2022-09-24T14:12:40;14.80;99.90
5556;DHT22;2801;50.972;7.856;2022-09-24T14:15:16;14.90;99.90
5556;DHT22;2801;50.972;7.856;2022-09-24T14:17:55;14.90;99.90
5556;DHT22;2801;50.972;7.856;2022-09-24T14:20:25;14.90;99.90
5556;DHT22;2801;50.972;7.856;2022-09-24T14:22:58;14.90;99.90
5556;DHT22;2801;50.972;7.856;2022-09-24T14:25:29;14.90;99.90
5556;DHT22;2801;50.972;7.856;2022-09-24T14:28:02;14.90;99.90
5556;DHT22;2801;50.972;7.856;2022-09-24T14:30:31;14.90;99.90
5556;DHT22;2801;50.972;7.856;2022-09-24T14:33:06;15.00;99.90
5556;DHT22;2801;50.972;7.856;2022-09-24T14:35:44;15.00;99.90
5556;DHT22;2801;50.972;7.856;2022-09-24T14:38:23;15.00;99.90
5556;DHT22;2801;50.972;7.856;2022-09-24T14:41:00;15.00;99.90
5556;DHT22;2801;50.972;7.856;2022-09-24T14:43:52;15.00;99.90
5556;DHT22;2801;50.972;7.856;2022-09-24T14:46:52;14.90;99.90
5556;DHT22;2801;50.972;7.856;2022-09-24T14:49:26;14.90;99.90
5556;DHT22;2801;50.972;7.856;2022-09-24T14:52:03;14.90;99.90
5556;DHT22;2801;50.972;7.856;2022-09-24T14:54:35;14.90;99.90
5556;DHT22;2801;50.972;7.856;2022-09-24T14:59:46;14.90;99.90
5556;DHT22;2801;50.972;7.856;2022-09-24T15:02:19;14.90;99.90
5556;DHT22;2801;50.972;7.856;2022-09-24T15:04:52;14.90;99.90
5556;DHT22;2801;50.972;7.856;2022-09-24T15:07:23;14.90;99.90
5556;DHT22;2801;50.972;7.856;2022-09-24T15:09:59;14.80;99.90
5556;DHT22;2801;50.972;7.856;2022-09-24T15:12:30;14.70;99.90
5556;DHT22;2801;50.972;7.856;2022-09-24T15:15:27;14.60;99.90
5556;DHT22;2801;50.972;7.856;2022-09-24T15:17:56;14.50;99.90
5556;DHT22;2801;50.972;7.856;2022-09-24T15:20:23;14.40;99.90
5556;DHT22;2801;50.972;7.856;2022-09-24T15:22:50;14.40;99.90
5556;DHT22;2801;50.972;7.856;2022-09-24T15:25:17;14.30;99.90
5556;DHT22;2801;50.972;7.856;2022-09-24T15:27:44;14.20;99.90
5556;DHT22;2801;50.972;7.856;2022-09-24T15:30:16;14.10;99.90
5556;DHT22;2801;50.972;7.856;2022-09-24T15:32:45;14.10;99.90
5556;DHT22;2801;50.972;7.856;2022-09-24T15:35:15;14.00;99.90
5556;DHT22;2801;50.972;7.856;2022-09-24T15:37:42;13.90;99.90
5556;DHT22;2801;50.972;7.856;2022-09-24T15:40:21;13.90;99.90
5556;DHT22;2801;50.972;7.856;2022-09-24T15:42:51;13.90;99.90
5556;DHT22;2801;50.972;7.856;2022-09-24T15:45:22;13.90;99.90
5556;DHT22;2801;50.972;7.856;2022-09-24T15:47:51;13.80;99.90
5556;DHT22;2801;50.972;7.856;2022-09-24T15:50:20;13.70;99.90
5556;DHT22;2801;50.972;7.856;2022-09-24T15:52:57;13.60;99.90
5556;DHT22;2801;50.972;7.856;2022-09-24T15:55:26;13.40;99.90
5556;DHT22;2801;50.972;7.856;2022-09-24T15:57:54;13.40;99.90
5556;DHT22;2801;50.972;7.856;2022-09-24T16:00:22;13.30;99.90
5556;DHT22;2801;50.972;7.856;2022-09-24T16:02:53;13.20;99.90
5556;DHT22;2801;50.972;7.856;2022-09-24T16:05:22;13.20;99.90
5556;DHT22;2801;50.972;7.856;2022-09-24T16:07:50;13.10;99.90
5556;DHT22;2801;50.972;7.856;2022-09-24T16:10:17;13.10;99.90
5556;DHT22;2801;50.972;7.856;2022-09-24T16:12:44;13.00;99.90
5556;DHT22;2801;50.972;7.856;2022-09-24T16:15:13;13.00;99.90
5556;DHT22;2801;50.972;7.856;2022-09-24T16:17:41;13.00;99.90
5556;DHT22;2801;50.972;7.856;2022-09-24T16:20:09;13.00;99.90
5556;DHT22;2801;50.972;7.856;2022-09-24T16:22:36;13.00;99.90
5556;DHT22;2801;50.972;7.856;2022-09-24T16:25:03;13.00;99.90
5556;DHT22;2801;50.972;7.856;2022-09-24T16:27:30;13.00;99.90
5556;DHT22;2801;50.972;7.856;2022-09-24T16:29:57;13.00;99.90
5556;DHT22;2801;50.972;7.856;2022-09-24T16:32:24;13.00;99.90
5556;DHT22;2801;50.972;7.856;2022-09-24T16:34:51;13.00;99.90
5556;DHT22;2801;50.972;7.856;2022-09-24T16:37:20;13.10;99.90
5556;DHT22;2801;50.972;7.856;2022-09-24T16:39:47;13.00;99.90
5556;DHT22;2801;50.972;7.856;2022-09-24T16:42:14;13.00;99.90
5556;DHT22;2801;50.972;7.856;2022-09-24T16:44:41;13.10;99.90
5556;DHT22;2801;50.972;7.856;2022-09-24T16:47:07;13.00;99.90
5556;DHT22;2801;50.972;7.856;2022-09-24T16:49:34;13.00;99.90
5556;DHT22;2801;50.972;7.856;2022-09-24T16:52:01;13.00;99.90
5556;DHT22;2801;50.972;7.856;2022-09-24T16:54:28;13.00;99.90
5556;DHT22;2801;50.972;7.856;2022-09-24T16:56:56;13.00;99.90
5556;DHT22;2801;50.972;7.856;2022-09-24T16:59:23;13.00;99.90
5556;DHT22;2801;50.972;7.856;2022-09-24T17:01:50;12.90;99.90
5556;DHT22;2801;50.972;7.856;2022-09-24T17:04:19;12.90;99.90
5556;DHT22;2801;50.972;7.856;2022-09-24T17:06:48;12.90;99.90
5556;DHT22;2801;50.972;7.856;2022-09-24T17:09:15;12.90;99.90
5556;DHT22;2801;50.972;7.856;2022-09-24T17:12:01;12.80;99.90
5556;DHT22;2801;50.972;7.856;2022-09-24T17:14:28;12.90;99.90
5556;DHT22;2801;50.972;7.856;2022-09-24T17:16:55;12.80;99.90
5556;DHT22;2801;50.972;7.856;2022-09-24T17:19:21;12.80;99.90
5556;DHT22;2801;50.972;7.856;2022-09-24T17:21:48;12.80;99.90
5556;DHT22;2801;50.972;7.856;2022-09-24T17:24:16;12.80;99.90
5556;DHT22;2801;50.972;7.856;2022-09-24T17:26:47;12.80;99.90
5556;DHT22;2801;50.972;7.856;2022-09-24T17:29:14;12.80;99.90
5556;DHT22;2801;50.972;7.856;2022-09-24T17:31:43;12.80;99.90
5556;DHT22;2801;50.972;7.856;2022-09-24T17:34:10;12.80;99.90
5556;DHT22;2801;50.972;7.856;2022-09-24T17:36:40;12.70;99.90
5556;DHT22;2801;50.972;7.856;2022-09-24T17:39:10;12.70;99.90
5556;DHT22;2801;50.972;7.856;2022-09-24T17:41:38;12.70;99.90
5556;DHT22;2801;50.972;7.856;2022-09-24T17:44:05;12.60;99.90
5556;DHT22;2801;50.972;7.856;2022-09-24T17:46:32;12.70;99.90
5556;DHT22;2801;50.972;7.856;2022-09-24T17:49:01;12.70;99.90
5556;DHT22;2801;50.972;7.856;2022-09-24T17:51:34;12.60;99.90
5556;DHT22;2801;50.972;7.856;2022-09-24T17:54:07;12.70;99.90
5556;DHT22;2801;50.972;7.856;2022-09-24T17:56:36;12.60;99.90
5556;DHT22;2801;50.972;7.856;2022-09-24T17:59:05;12.60;99.90
5556;DHT22;2801;50.972;7.856;2022-09-24T18:01:38;12.70;99.90
5556;DHT22;2801;50.972;7.856;2022-09-24T18:04:15;12.60;99.90
5556;DHT22;2801;50.972;7.856;2022-09-24T18:06:46;12.70;99.90
5556;DHT22;2801;50.972;7.856;2022-09-24T18:09:15;12.60;99.90
5556;DHT22;2801;50.972;7.856;2022-09-24T18:11:48;12.70;99.90
5556;DHT22;2801;50.972;7.856;2022-09-24T18:14:20;12.60;99.90
5556;DHT22;2801;50.972;7.856;2022-09-24T18:16:48;12.50;99.90
5556;DHT22;2801;50.972;7.856;2022-09-24T18:19:16;12.50;99.90
5556;DHT22;2801;50.972;7.856;2022-09-24T18:21:44;12.40;99.90
5556;DHT22;2801;50.972;7.856;2022-09-24T18:24:12;12.40;99.90
5556;DHT22;2801;50.972;7.856;2022-09-24T18:26:40;12.30;99.90
5556;DHT22;2801;50.972;7.856;2022-09-24T18:29:11;12.30;99.90
5556;DHT22;2801;50.972;7.856;2022-09-24T18:31:41;12.20;99.90
5556;DHT22;2801;50.972;7.856;2022-09-24T18:34:11;12.20;99.90